マカオ の空港の天気 - METARとTAF

マカオ国際空港 ( VMMC / MFM ) - マカオ タイパ島
飛行場実況気象(Metar)
観測時間05/31 01:00 CST (05/30 17:00 UTC)
風向・風速南南西 5m/s
視程10km以上
天気現象
少しの雲 雲底高度 370m
全天の4割程度の雲 雲底高度 760m
気温29℃
湿度89%
気圧1010hPa
METARVMMC 301700Z 21009KT 9999 FEW012 SCT025 29/27 Q1010 NOSIG
過去の天気等 Google飛行場航空写真 Wunderground天気予報

過去48時間のMETAR

飛行場予報(TAF)
発表時間: 5/31 01:00 CST (5/30 17:00 UTC)
予報対象時間: 31日2時 CST ~ 1日8時 CST
風向・風速南南西 4m/s
視程9000m
少しの雲 雲底高度 460m
全天の4割程度の雲 雲底高度 910m
31日5時 CST ~ 31日10時 CST に一時的に
風向・風速不定 8m/s 瞬間風速 13m/s
視程2500m
天気現象雷雨
少しの雲 雲底高度 240m
全天の4割程度の積乱雲 雲底高度 460m
31日13時 CST ~ 31日18時 CST に一時的に
視程3500m
天気現象しゅう雨
少しの積乱雲 雲底高度 300m
全天の4割程度の雲 雲底高度 610m
1日4時 CST ~ 1日8時 CST に一時的に
風向・風速不定 8m/s 瞬間風速 13m/s
視程2500m
天気現象雷雨
少しの雲 雲底高度 240m
全天の4割程度の積乱雲 雲底高度 460m
TAF VMMC 301700Z 3018/3124 20008KT 9000 FEW015 SCT030
TEMPO 3021/3102 VRB15G25KT 2500 TSRA FEW008 SCT015CB
TEMPO 3105/3110 3500 SHRA FEW010CB SCT020
TEMPO 3120/3124 VRB15G25KT 2500 TSRA FEW008 SCT015CB